createdAt,value
2022-09-13T00:08:41.162Z,17.93
2022-09-13T00:23:33.260Z,17.73
2022-09-13T00:38:24.895Z,17.59
2022-09-13T00:53:15.886Z,17.52
2022-09-13T01:08:07.082Z,17.40
2022-09-13T01:23:26.262Z,17.34
2022-09-13T01:38:23.807Z,17.23
2022-09-13T01:53:21.752Z,17.14
2022-09-13T02:08:17.219Z,16.94
2022-09-13T02:23:08.890Z,16.79
2022-09-13T02:38:05.448Z,16.67
2022-09-13T02:53:03.466Z,16.55
2022-09-13T03:07:56.814Z,16.38
2022-09-13T03:23:16.400Z,16.33
2022-09-13T03:38:14.961Z,16.31
2022-09-13T03:53:09.057Z,16.35
2022-09-13T04:08:05.961Z,16.39
2022-09-13T04:23:00.082Z,16.43
2022-09-13T04:37:51.323Z,16.46
2022-09-13T04:52:42.734Z,16.49
2022-09-13T05:07:34.521Z,16.51
2022-09-13T05:22:26.108Z,16.48
2022-09-13T05:37:16.626Z,16.45
2022-09-13T05:52:08.093Z,16.53
2022-09-13T06:06:58.952Z,16.65
2022-09-13T06:21:51.170Z,16.79
2022-09-13T06:36:42.662Z,17.14
2022-09-13T06:51:35.400Z,17.53
2022-09-13T07:06:28.593Z,18.05
2022-09-13T07:21:20.478Z,18.31
2022-09-13T07:36:12.915Z,18.62
2022-09-13T07:51:10.447Z,18.81
2022-09-13T08:06:05.942Z,19.06
2022-09-13T08:21:00.607Z,19.47
2022-09-13T08:35:56.807Z,19.74
2022-09-13T08:50:48.379Z,19.97
2022-09-13T09:05:43.253Z,20.34
2022-09-13T09:20:40.641Z,20.66
2022-09-13T09:35:44.881Z,20.96
2022-09-13T09:50:41.204Z,21.50
2022-09-13T10:05:33.880Z,21.74
2022-09-13T10:20:26.404Z,22.19
2022-09-13T10:35:19.946Z,22.70
2022-09-13T10:50:21.576Z,23.05
2022-09-13T11:05:27.211Z,23.39
2022-09-13T11:20:36.384Z,23.67
2022-09-13T11:35:42.788Z,23.99
2022-09-13T11:51:02.848Z,24.22
2022-09-13T12:06:01.476Z,24.50
2022-09-13T12:20:54.754Z,25.06
2022-09-13T12:35:50.865Z,25.42
2022-09-13T12:51:08.491Z,25.94
2022-09-13T13:06:09.359Z,26.23
2022-09-13T13:21:06.198Z,26.63
2022-09-13T13:35:58.950Z,26.41
2022-09-13T13:51:12.050Z,26.15
2022-09-13T14:06:11.995Z,26.23
2022-09-13T14:21:25.293Z,26.32
2022-09-13T14:36:23.743Z,26.55
2022-09-13T14:51:31.086Z,26.58
2022-09-13T15:06:31.448Z,26.59
2022-09-13T15:21:26.801Z,26.45
2022-09-13T15:36:18.731Z,26.24
2022-09-13T15:51:10.082Z,26.14
2022-09-13T16:06:01.308Z,26.05
2022-09-13T16:20:53.135Z,25.95
2022-09-13T16:35:44.962Z,25.81
2022-09-13T16:50:36.361Z,25.64
2022-09-13T17:05:28.760Z,25.49
2022-09-13T17:20:20.138Z,25.25
2022-09-13T17:35:11.188Z,24.94
2022-09-13T17:50:02.327Z,24.66
2022-09-13T18:04:53.481Z,24.37
2022-09-13T18:19:47.033Z,24.02
2022-09-13T18:34:36.034Z,23.86
2022-09-13T18:49:27.756Z,23.61
2022-09-13T19:04:19.009Z,23.47
2022-09-13T19:19:10.635Z,23.39
2022-09-13T19:34:01.908Z,23.30
2022-09-13T19:48:54.233Z,23.20
2022-09-13T20:03:55.363Z,23.13
2022-09-13T20:18:51.217Z,22.98
2022-09-13T20:33:41.804Z,22.76
2022-09-13T20:48:33.276Z,22.57
2022-09-13T21:03:25.131Z,22.37
2022-09-13T21:18:16.482Z,22.20
2022-09-13T21:33:08.087Z,22.06
2022-09-13T21:47:59.483Z,21.87
2022-09-13T22:02:50.909Z,21.72
2022-09-13T22:17:42.260Z,21.58
2022-09-13T22:32:33.483Z,21.52
2022-09-13T22:47:25.033Z,21.45
2022-09-13T23:17:08.719Z,21.45
2022-09-13T23:31:59.927Z,21.07
2022-09-13T23:46:52.039Z,21.07
